Time;durP1;ratioP1;P1;durP2;ratioP2;P2;SDS_P1;SDS_P2;PMS_P1;PMS_P2;Temp;Humidity;BMP_temperature;BMP_pressure;BME280_temperature;BME280_humidity;BME280_pressure;Samples;Min_cycle;Max_cycle;Signal;HPM_P1;HPM_P2
2021/11/26 00:01:31;;;;;;;24.85;12.02;;;20.30;97.00;;;;;;5074662;28;20356;-60
2021/11/26 00:04:00;;;;;;;22.77;11.77;;;20.30;97.00;;;;;;5072498;28;20028;-56
2021/11/26 00:06:29;;;;;;;25.05;12.10;;;20.30;97.00;;;;;;5073480;28;20048;-57
2021/11/26 00:09:00;;;;;;;26.75;13.18;;;20.30;97.10;;;;;;5074833;28;20502;-58
2021/11/26 00:11:29;;;;;;;26.35;11.23;;;20.30;97.00;;;;;;5074491;28;20059;-57
2021/11/26 00:14:16;;;;;;;22.15;11.55;;;20.30;97.00;;;;;;5074502;28;20023;-63
2021/11/26 00:16:44;;;;;;;23.55;11.70;;;20.30;97.00;;;;;;5074792;28;20097;-62
2021/11/26 00:19:12;;;;;;;27.35;13.32;;;20.30;97.00;;;;;;5073499;28;20031;-58
2021/11/26 00:21:42;;;;;;;22.40;11.13;;;20.30;97.00;;;;;;5074261;28;20097;-57
2021/11/26 00:24:12;;;;;;;21.58;11.93;;;20.30;97.00;;;;;;5074592;28;20020;-57
2021/11/26 00:26:41;;;;;;;18.50;10.20;;;20.30;97.10;;;;;;5074716;28;20040;-55
2021/11/26 00:29:08;;;;;;;19.60;9.63;;;20.30;97.00;;;;;;5074469;28;20055;-61
2021/11/26 00:31:36;;;;;;;20.40;10.48;;;20.30;97.00;;;;;;5074063;28;20031;-61
2021/11/26 00:34:04;;;;;;;28.83;10.77;;;20.30;97.00;;;;;;5074148;28;20031;-59
2021/11/26 00:36:32;;;;;;;18.20;9.30;;;20.40;97.10;;;;;;5074122;28;20020;-61
2021/11/26 00:39:01;;;;;;;19.52;10.68;;;20.30;97.00;;;;;;5074750;28;20082;-58
2021/11/26 00:41:28;;;;;;;22.42;10.75;;;20.30;97.00;;;;;;5072882;28;20024;-61
2021/11/26 00:43:56;;;;;;;19.73;10.05;;;20.30;97.00;;;;;;5072804;28;20060;-60
2021/11/26 00:46:24;;;;;;;22.10;10.05;;;20.30;97.00;;;;;;5055855;28;20106;-61
2021/11/26 00:48:51;;;;;;;19.92;9.70;;;20.40;97.00;;;;;;5073904;28;20067;-60
2021/11/26 00:51:19;;;;;;;22.23;10.35;;;20.30;97.00;;;;;;5073734;28;20024;-58
2021/11/26 00:53:46;;;;;;;18.73;9.43;;;20.40;97.00;;;;;;5071851;28;20071;-61
2021/11/26 00:56:14;;;;;;;20.10;9.27;;;20.40;97.00;;;;;;5073167;28;20102;-60
2021/11/26 00:58:41;;;;;;;18.95;9.38;;;20.40;97.00;;;;;;5073629;28;20074;-58
2021/11/26 01:01:09;;;;;;;17.13;8.68;;;20.40;97.00;;;;;;5074054;28;20041;-57
2021/11/26 01:03:37;;;;;;;17.85;9.65;;;20.30;97.00;;;;;;5073884;28;20029;-59
2021/11/26 01:06:04;;;;;;;17.58;8.77;;;20.30;97.00;;;;;;5073274;28;20047;-56
2021/11/26 01:08:34;;;;;;;18.67;8.60;;;20.30;97.00;;;;;;5073329;28;20017;-59
2021/11/26 01:11:01;;;;;;;19.38;9.02;;;20.30;97.00;;;;;;5073259;28;20391;-61
2021/11/26 01:13:29;;;;;;;15.50;8.27;;;20.30;97.00;;;;;;5072394;28;20100;-52
2021/11/26 01:15:57;;;;;;;19.17;8.65;;;20.40;97.30;;;;;;5073667;28;20490;-60
2021/11/26 01:18:25;;;;;;;16.00;7.70;;;20.30;97.00;;;;;;5073265;28;20380;-54
2021/11/26 01:20:53;;;;;;;15.15;7.47;;;20.40;97.10;;;;;;5073153;28;20032;-58
2021/11/26 01:23:24;;;;;;;15.88;8.27;;;20.30;97.00;;;;;;5071839;28;20387;-62
2021/11/26 01:25:53;;;;;;;14.43;6.75;;;20.30;97.00;;;;;;5055692;28;20127;-53
2021/11/26 01:28:21;;;;;;;15.52;7.45;;;20.30;97.00;;;;;;5072100;28;20102;-61
2021/11/26 01:30:50;;;;;;;13.82;7.13;;;20.30;97.10;;;;;;5073077;28;20024;-56
2021/11/26 01:33:19;;;;;;;13.90;7.18;;;20.30;97.10;;;;;;5070174;28;20012;-60
2021/11/26 01:35:51;;;;;;;14.50;6.65;;;20.30;97.00;;;;;;5073194;28;20082;-61
2021/11/26 01:38:20;;;;;;;16.05;6.97;;;20.30;97.10;;;;;;5072937;28;20099;-59
2021/11/26 01:40:48;;;;;;;15.10;7.57;;;20.30;97.10;;;;;;5072578;28;20035;-54
2021/11/26 01:43:20;;;;;;;15.23;6.75;;;20.30;97.10;;;;;;5070847;28;20483;-63
2021/11/26 01:46:06;;;;;;;11.98;5.38;;;20.30;97.10;;;;;;5071744;28;20082;-52
2021/11/26 01:48:34;;;;;;;12.55;6.50;;;20.30;97.20;;;;;;5071956;28;20035;-60
2021/11/26 01:51:03;;;;;;;12.25;5.28;;;20.40;97.10;;;;;;5073104;28;20020;-61
2021/11/26 01:53:31;;;;;;;13.77;5.90;;;20.30;97.20;;;;;;5072869;28;20059;-61
2021/11/26 01:55:59;;;;;;;9.43;5.00;;;20.40;97.20;;;;;;5071724;28;20036;-59
2021/11/26 01:58:28;;;;;;;14.10;6.32;;;20.40;97.20;;;;;;5072385;28;20040;-60
2021/11/26 02:01:02;;;;;;;13.10;5.72;;;20.40;97.20;;;;;;5072797;28;20455;-60
2021/11/26 02:03:35;;;;;;;11.52;5.53;;;20.40;97.20;;;;;;5072159;28;20029;-58
2021/11/26 02:06:02;;;;;;;12.07;5.85;;;20.40;97.10;;;;;;5072548;28;20044;-62
2021/11/26 02:08:30;;;;;;;14.75;6.00;;;20.40;97.00;;;;;;5071783;28;20386;-60
2021/11/26 02:10:58;;;;;;;10.23;4.82;;;20.40;97.00;;;;;;5072864;28;20092;-66
2021/11/26 02:13:26;;;;;;;10.82;4.93;;;20.40;97.00;;;;;;5072428;28;20025;-62
2021/11/26 02:15:54;;;;;;;10.35;4.90;;;20.50;97.00;;;;;;5071293;28;20032;-61
2021/11/26 02:18:22;;;;;;;13.80;5.63;;;20.50;96.90;;;;;;5072519;28;20020;-58
2021/11/26 02:20:49;;;;;;;11.05;4.40;;;20.50;96.90;;;;;;5072520;28;20510;-63
2021/11/26 02:23:17;;;;;;;9.05;4.53;;;20.50;97.00;;;;;;5072435;28;20467;-61
2021/11/26 02:25:46;;;;;;;10.45;4.45;;;20.50;97.00;;;;;;5072437;28;20128;-60
2021/11/26 02:28:17;;;;;;;9.68;4.55;;;20.50;97.00;;;;;;5070911;28;20017;-62
2021/11/26 02:30:45;;;;;;;11.57;4.53;;;20.50;97.00;;;;;;5072268;28;20025;-62
2021/11/26 02:33:17;;;;;;;11.82;4.65;;;20.50;97.00;;;;;;5072291;28;20104;-60
2021/11/26 02:35:47;;;;;;;9.48;4.60;;;20.50;96.90;;;;;;5071185;28;20024;-61
2021/11/26 02:38:15;;;;;;;9.07;3.85;;;20.50;96.90;;;;;;5072186;28;20024;-61
2021/11/26 02:40:44;;;;;;;9.07;3.97;;;20.50;96.90;;;;;;5072732;28;20028;-61
2021/11/26 02:43:13;;;;;;;12.52;4.60;;;20.50;96.90;;;;;;5072030;28;20025;-59
2021/11/26 02:45:44;;;;;;;9.55;4.35;;;20.50;96.80;;;;;;5071238;28;20139;-57
2021/11/26 02:48:13;;;;;;;9.68;3.72;;;20.60;96.80;;;;;;5071553;28;20028;-60
2021/11/26 02:50:43;;;;;;;12.25;4.15;;;20.60;96.80;;;;;;5071537;28;20471;-60
2021/11/26 02:53:11;;;;;;;12.00;4.40;;;20.60;96.80;;;;;;5072100;28;20201;-61
2021/11/26 02:55:40;;;;;;;8.98;3.90;;;20.60;96.70;;;;;;5053975;28;20051;-55
2021/11/26 02:58:10;;;;;;;10.15;4.00;;;20.60;96.70;;;;;;5053530;28;20021;-56
2021/11/26 03:00:39;;;;;;;11.85;5.05;;;20.60;96.60;;;;;;5072452;28;20032;-58
2021/11/26 03:03:07;;;;;;;9.93;4.60;;;20.60;96.60;;;;;;5072122;28;20066;-58
2021/11/26 03:05:35;;;;;;;12.15;3.83;;;20.60;96.60;;;;;;5071937;28;20086;-59
2021/11/26 03:08:05;;;;;;;11.05;3.72;;;20.60;96.60;;;;;;5075066;28;20024;-59
2021/11/26 03:10:33;;;;;;;7.10;3.28;;;20.60;96.50;;;;;;5075336;28;20491;-59
2021/11/26 03:13:07;;;;;;;8.25;3.70;;;20.60;96.60;;;;;;5074233;28;20052;-60
2021/11/26 03:15:39;;;;;;;9.35;3.88;;;20.60;96.50;;;;;;5075672;28;20028;-62
2021/11/26 03:18:11;;;;;;;8.25;3.40;;;20.70;96.50;;;;;;5075474;28;20029;-55
2021/11/26 03:20:39;;;;;;;9.17;2.87;;;20.70;96.50;;;;;;5075899;28;20113;-63
2021/11/26 03:23:07;;;;;;;7.72;3.40;;;20.70;96.50;;;;;;5075292;28;20024;-63
2021/11/26 03:25:34;;;;;;;10.73;3.22;;;20.70;96.50;;;;;;5075603;28;20029;-63
2021/11/26 03:28:05;;;;;;;11.05;3.72;;;20.70;96.50;;;;;;5073929;28;20028;-62
2021/11/26 03:30:33;;;;;;;8.27;3.05;;;20.70;96.40;;;;;;5075422;28;20052;-62
2021/11/26 03:33:01;;;;;;;12.30;3.88;;;20.70;96.40;;;;;;5073887;28;20021;-59
2021/11/26 03:35:28;;;;;;;7.07;3.00;;;20.70;96.40;;;;;;5075203;28;20070;-54
2021/11/26 03:38:00;;;;;;;9.82;3.20;;;20.70;96.40;;;;;;5074249;28;20025;-58
2021/11/26 03:40:28;;;;;;;8.80;3.30;;;20.70;96.50;;;;;;5074723;28;20043;-52
2021/11/26 03:42:57;;;;;;;8.00;3.33;;;20.80;96.30;;;;;;5075310;28;20268;-61
2021/11/26 03:45:28;;;;;;;8.93;2.95;;;20.80;96.30;;;;;;5075027;28;20040;-54
2021/11/26 03:47:58;;;;;;;10.10;3.92;;;20.80;96.20;;;;;;5074978;28;20046;-55
2021/11/26 03:50:28;;;;;;;11.23;2.97;;;20.80;96.20;;;;;;5074644;28;20016;-55
2021/11/26 03:52:56;;;;;;;7.80;2.92;;;20.80;96.10;;;;;;5074704;28;20491;-61
2021/11/26 03:55:27;;;;;;;8.32;3.20;;;20.90;96.20;;;;;;5074391;28;20064;-64
2021/11/26 03:57:55;;;;;;;9.18;3.25;;;20.90;96.10;;;;;;5073114;28;20079;-56
2021/11/26 04:00:27;;;;;;;8.40;3.03;;;20.90;96.10;;;;;;5075042;28;20131;-54
2021/11/26 04:02:55;;;;;;;8.07;2.58;;;20.90;96.00;;;;;;5074605;28;20031;-61
2021/11/26 04:05:26;;;;;;;7.65;2.92;;;20.90;96.00;;;;;;5074461;28;20036;-55
2021/11/26 04:07:54;;;;;;;10.70;3.53;;;20.90;96.00;;;;;;5074529;28;20379;-62
2021/11/26 04:10:22;;;;;;;8.88;3.28;;;20.90;96.00;;;;;;5074788;28;20070;-56
2021/11/26 04:12:51;;;;;;;7.70;2.83;;;20.90;95.90;;;;;;5074725;28;20050;-54
2021/11/26 04:15:19;;;;;;;8.95;2.95;;;20.90;95.90;;;;;;5074244;28;20463;-62
2021/11/26 04:17:50;;;;;;;10.48;2.90;;;20.80;95.90;;;;;;5074148;28;20040;-60
2021/11/26 04:20:19;;;;;;;9.80;3.33;;;20.80;95.80;;;;;;5074523;28;20027;-59
2021/11/26 04:22:47;;;;;;;8.27;3.10;;;20.80;95.80;;;;;;5072976;28;20114;-58
2021/11/26 04:25:17;;;;;;;7.10;2.60;;;20.80;95.80;;;;;;5074252;28;20503;-54
2021/11/26 04:27:45;;;;;;;8.68;3.10;;;20.80;95.90;;;;;;5074238;28;20060;-57
2021/11/26 04:30:14;;;;;;;7.35;3.00;;;20.80;95.90;;;;;;5074243;28;20021;-56
2021/11/26 04:32:41;;;;;;;9.95;3.38;;;20.80;95.90;;;;;;5070154;28;20032;-52
2021/11/26 04:35:10;;;;;;;9.18;3.30;;;20.80;95.90;;;;;;5074135;28;20035;-58
2021/11/26 04:37:38;;;;;;;10.45;3.17;;;20.80;95.90;;;;;;5074141;28;20032;-57
2021/11/26 04:40:08;;;;;;;6.85;2.83;;;20.80;96.00;;;;;;5073610;28;20510;-56
2021/11/26 04:42:42;;;;;;;8.70;2.83;;;20.80;96.00;;;;;;5073205;28;20024;-57
2021/11/26 04:45:11;;;;;;;11.38;3.10;;;20.80;96.00;;;;;;5071867;28;20024;-59
2021/11/26 04:47:39;;;;;;;9.38;3.10;;;20.80;96.00;;;;;;5073633;28;20043;-60
2021/11/26 04:50:09;;;;;;;8.02;2.92;;;20.80;96.00;;;;;;5073767;28;20025;-60
2021/11/26 04:52:36;;;;;;;8.07;2.63;;;20.80;96.10;;;;;;5073253;28;20028;-61
2021/11/26 04:55:06;;;;;;;9.15;3.55;;;20.70;96.10;;;;;;5072848;28;20036;-62
2021/11/26 04:57:33;;;;;;;8.65;2.95;;;20.70;96.10;;;;;;5073472;28;20399;-60
2021/11/26 05:00:01;;;;;;;8.30;2.90;;;20.70;96.10;;;;;;5072973;28;20035;-50
2021/11/26 05:02:29;;;;;;;8.68;2.90;;;20.70;96.20;;;;;;5073698;28;20028;-60
2021/11/26 05:04:57;;;;;;;9.07;3.00;;;20.70;96.20;;;;;;5073293;28;20486;-59
2021/11/26 05:07:24;;;;;;;8.20;3.47;;;20.70;96.30;;;;;;5072053;28;20028;-60
2021/11/26 05:09:52;;;;;;;7.40;2.42;;;20.70;96.30;;;;;;5072827;28;20024;-56
2021/11/26 05:12:20;;;;;;;8.75;2.60;;;20.60;96.30;;;;;;5073061;28;20082;-57
2021/11/26 05:14:48;;;;;;;9.27;3.00;;;20.60;96.40;;;;;;5073322;28;20055;-59
2021/11/26 05:17:15;;;;;;;7.40;2.47;;;20.70;96.40;;;;;;5073341;28;20032;-58
2021/11/26 05:19:43;;;;;;;9.07;2.53;;;20.60;96.40;;;;;;5072481;28;20051;-56
2021/11/26 05:22:10;;;;;;;8.85;2.55;;;20.60;96.70;;;;;;5071728;28;20395;-58
2021/11/26 05:24:38;;;;;;;7.75;2.70;;;20.60;96.50;;;;;;5073084;28;20020;-52
2021/11/26 05:27:06;;;;;;;7.72;2.50;;;20.60;96.50;;;;;;5072584;28;20387;-59
2021/11/26 05:29:33;;;;;;;7.70;2.50;;;20.60;96.60;;;;;;5072951;28;20039;-61
2021/11/26 05:32:01;;;;;;;8.68;2.80;;;20.60;96.60;;;;;;5072960;28;20056;-60
2021/11/26 05:34:28;;;;;;;7.18;1.98;;;20.50;96.90;;;;;;5073419;28;20029;-60
2021/11/26 05:36:55;;;;;;;9.95;3.10;;;20.50;96.60;;;;;;5073078;28;20540;-56
2021/11/26 05:39:23;;;;;;;8.25;2.20;;;20.50;96.70;;;;;;5072235;28;20086;-61
2021/11/26 05:41:51;;;;;;;8.82;2.33;;;20.40;96.60;;;;;;5071605;28;20024;-55
2021/11/26 05:44:18;;;;;;;5.85;2.35;;;20.50;96.70;;;;;;5072978;28;20036;-60
2021/11/26 05:46:46;;;;;;;8.98;2.50;;;20.40;96.70;;;;;;5071471;28;20483;-49
2021/11/26 05:49:13;;;;;;;9.20;3.10;;;20.40;96.70;;;;;;5070557;28;20031;-53
2021/11/26 05:51:41;;;;;;;8.20;2.83;;;20.40;96.80;;;;;;5072165;28;20035;-58
2021/11/26 05:54:09;;;;;;;7.63;2.28;;;20.40;96.80;;;;;;5072232;28;20037;-57
2021/11/26 05:56:36;;;;;;;7.65;2.10;;;20.40;96.80;;;;;;5072164;28;20024;-62
2021/11/26 05:59:04;;;;;;;7.95;2.67;;;20.30;96.70;;;;;;5072767;28;20029;-56
2021/11/26 06:01:31;;;;;;;10.30;2.88;;;20.40;96.80;;;;;;5072489;28;20031;-58
2021/11/26 06:03:59;;;;;;;8.63;2.60;;;20.30;96.80;;;;;;5072102;28;20027;-60
2021/11/26 06:06:27;;;;;;;8.10;2.53;;;20.30;96.80;;;;;;5072093;28;20039;-59
2021/11/26 06:08:55;;;;;;;7.97;2.35;;;20.30;96.90;;;;;;5072016;28;20536;-56
2021/11/26 06:11:22;;;;;;;7.00;2.40;;;20.30;96.90;;;;;;5072289;28;20475;-62
2021/11/26 06:13:50;;;;;;;9.85;3.17;;;20.30;96.80;;;;;;5072290;28;20023;-57
2021/11/26 06:16:17;;;;;;;6.72;2.58;;;20.30;96.90;;;;;;5072180;28;20386;-52
2021/11/26 06:18:45;;;;;;;9.27;2.72;;;20.30;96.90;;;;;;5072224;28;20108;-59
2021/11/26 06:21:13;;;;;;;6.95;2.65;;;20.30;96.80;;;;;;5071953;28;20051;-57
2021/11/26 06:23:40;;;;;;;6.72;2.38;;;20.30;96.90;;;;;;5072020;28;20055;-53
2021/11/26 06:26:11;;;;;;;8.77;2.58;;;20.30;96.90;;;;;;5072184;28;20364;-56
2021/11/26 06:28:40;;;;;;;9.43;2.58;;;20.20;96.90;;;;;;5070814;28;20483;-58
2021/11/26 06:31:08;;;;;;;8.48;2.47;;;20.20;96.90;;;;;;5072600;28;20379;-59
2021/11/26 06:33:35;;;;;;;9.25;2.47;;;20.20;96.90;;;;;;5072442;28;20067;-61
2021/11/26 06:36:03;;;;;;;9.27;2.60;;;20.20;96.90;;;;;;5071958;28;20104;-53
2021/11/26 06:38:31;;;;;;;6.63;1.88;;;20.20;96.80;;;;;;5071961;28;20123;-56
2021/11/26 06:40:58;;;;;;;8.10;2.05;;;20.20;96.90;;;;;;5071779;28;20480;-58
2021/11/26 06:43:27;;;;;;;7.68;2.28;;;20.20;96.90;;;;;;5075813;28;20187;-59
2021/11/26 06:45:55;;;;;;;5.07;1.77;;;20.20;96.90;;;;;;5075850;28;20068;-59
2021/11/26 06:48:25;;;;;;;9.82;3.25;;;20.20;96.90;;;;;;5076596;28;20020;-63
2021/11/26 06:50:53;;;;;;;6.65;2.22;;;20.20;96.90;;;;;;5074424;28;20502;-60
2021/11/26 06:53:20;;;;;;;6.32;2.15;;;20.10;96.80;;;;;;5075485;28;20082;-58
2021/11/26 06:55:49;;;;;;;6.90;1.98;;;20.10;96.90;;;;;;5076088;28;20471;-55
2021/11/26 06:58:17;;;;;;;5.57;1.70;;;20.10;96.90;;;;;;5075539;28;20032;-61
2021/11/26 07:00:44;;;;;;;6.32;1.98;;;20.10;96.90;;;;;;5075205;28;20025;-55
2021/11/26 07:03:12;;;;;;;8.32;2.17;;;20.10;97.00;;;;;;5074471;28;20028;-57
2021/11/26 07:05:39;;;;;;;7.07;2.35;;;20.10;96.90;;;;;;5075969;28;20037;-57
2021/11/26 07:08:07;;;;;;;6.85;2.22;;;20.10;97.00;;;;;;5074392;28;20036;-60
2021/11/26 07:10:34;;;;;;;6.30;2.03;;;20.10;96.90;;;;;;5075892;28;20115;-59
2021/11/26 07:13:02;;;;;;;8.70;2.00;;;20.10;96.90;;;;;;5075472;28;20024;-59
2021/11/26 07:15:30;;;;;;;9.02;2.30;;;20.10;96.90;;;;;;5074221;28;20025;-58
2021/11/26 07:17:58;;;;;;;5.95;2.20;;;20.10;96.90;;;;;;5074907;28;20024;-58
2021/11/26 07:20:25;;;;;;;10.32;3.03;;;20.10;97.00;;;;;;5075846;28;20108;-58
2021/11/26 07:22:53;;;;;;;6.57;2.33;;;20.00;96.90;;;;;;5074605;28;20029;-61
2021/11/26 07:25:20;;;;;;;8.73;2.50;;;20.00;96.90;;;;;;5074920;28;20062;-58
2021/11/26 07:27:48;;;;;;;6.07;1.75;;;20.00;96.90;;;;;;5074793;28;20028;-61
2021/11/26 07:30:17;;;;;;;7.75;2.42;;;20.00;96.90;;;;;;5075138;28;20020;-61
2021/11/26 07:32:44;;;;;;;5.25;1.75;;;20.00;96.90;;;;;;5070798;28;20033;-57
2021/11/26 07:35:13;;;;;;;6.35;2.30;;;19.90;97.20;;;;;;5074911;28;20051;-60
2021/11/26 07:37:42;;;;;;;7.32;1.95;;;20.00;96.90;;;;;;5075194;28;20021;-61
2021/11/26 07:40:11;;;;;;;9.68;2.55;;;20.00;97.00;;;;;;5074934;28;20383;-60
2021/11/26 07:42:40;;;;;;;8.07;1.90;;;19.90;96.90;;;;;;5075295;28;20035;-61
2021/11/26 07:45:10;;;;;;;8.45;2.15;;;20.00;97.00;;;;;;5075239;28;20060;-57
2021/11/26 07:47:39;;;;;;;8.45;2.45;;;19.90;97.00;;;;;;5075307;28;20033;-62
2021/11/26 07:50:08;;;;;;;7.38;2.40;;;19.90;96.90;;;;;;5075040;28;20487;-58
2021/11/26 07:52:37;;;;;;;10.30;2.40;;;19.90;97.00;;;;;;5074293;28;20475;-60
2021/11/26 07:55:06;;;;;;;5.63;1.83;;;19.90;97.00;;;;;;5074425;28;20094;-58
2021/11/26 07:57:35;;;;;;;5.88;1.92;;;19.90;96.90;;;;;;5075123;28;20024;-63
2021/11/26 08:00:05;;;;;;;6.88;2.17;;;19.90;96.90;;;;;;5074753;28;20085;-61
2021/11/26 08:02:33;;;;;;;7.85;1.83;;;19.90;96.90;;;;;;5075123;28;20024;-59
2021/11/26 08:05:00;;;;;;;9.25;2.67;;;19.90;96.90;;;;;;5074908;28;20032;-61
2021/11/26 08:07:27;;;;;;;6.00;1.95;;;19.90;97.00;;;;;;5075023;28;20505;-59
2021/11/26 08:09:55;;;;;;;5.00;1.92;;;19.80;96.90;;;;;;5074542;28;20095;-62
2021/11/26 08:12:22;;;;;;;7.43;2.70;;;19.80;96.90;;;;;;5074244;28;20028;-57
2021/11/26 08:14:52;;;;;;;7.35;2.47;;;19.80;96.90;;;;;;5074703;28;20016;-60
2021/11/26 08:17:20;;;;;;;11.00;2.13;;;19.80;97.00;;;;;;5074258;28;20087;-60
2021/11/26 08:19:47;;;;;;;8.23;2.25;;;19.80;97.00;;;;;;5074645;28;20498;-61
2021/11/26 08:22:17;;;;;;;6.25;1.90;;;19.80;97.00;;;;;;5074530;28;20143;-54
2021/11/26 08:24:45;;;;;;;10.80;2.78;;;19.80;96.90;;;;;;5074772;28;20084;-55
2021/11/26 08:27:12;;;;;;;10.57;2.42;;;19.80;97.00;;;;;;5074217;28;20378;-61
2021/11/26 08:29:40;;;;;;;9.52;2.50;;;19.80;96.90;;;;;;5074696;28;20016;-61
2021/11/26 08:32:07;;;;;;;4.90;1.75;;;19.70;96.90;;;;;;5074039;28;20388;-57
2021/11/26 08:34:35;;;;;;;4.82;1.98;;;19.70;97.00;;;;;;5074279;28;20039;-58
2021/11/26 08:37:03;;;;;;;7.68;2.15;;;19.70;96.90;;;;;;5074375;28;20367;-60
2021/11/26 08:39:30;;;;;;;6.20;2.30;;;19.70;97.00;;;;;;5074286;28;20035;-59
2021/11/26 08:41:58;;;;;;;9.65;2.33;;;19.70;97.00;;;;;;5073888;28;20104;-57
2021/11/26 08:44:25;;;;;;;7.18;2.13;;;19.70;97.00;;;;;;5072820;28;20056;-60
2021/11/26 08:46:53;;;;;;;9.57;2.70;;;19.70;97.00;;;;;;5073913;28;20488;-58
2021/11/26 08:49:20;;;;;;;9.77;2.60;;;19.70;96.90;;;;;;5074129;28;20448;-60
2021/11/26 08:51:48;;;;;;;10.48;3.95;;;19.70;96.90;;;;;;5074113;28;20475;-56
2021/11/26 08:54:18;;;;;;;7.25;2.28;;;19.70;96.90;;;;;;5073589;28;20098;-56
2021/11/26 08:56:47;;;;;;;10.27;2.30;;;19.60;96.90;;;;;;5073651;28;20364;-57
2021/11/26 08:59:14;;;;;;;11.20;2.90;;;19.70;96.90;;;;;;5073522;28;20033;-60
2021/11/26 09:01:41;;;;;;;8.00;2.25;;;19.70;96.90;;;;;;5073662;28;20028;-61
2021/11/26 09:04:11;;;;;;;8.70;2.78;;;19.70;96.90;;;;;;5073086;28;20020;-60
2021/11/26 09:06:39;;;;;;;8.35;2.90;;;19.60;96.90;;;;;;5073853;28;20036;-60
2021/11/26 09:09:07;;;;;;;8.15;2.60;;;19.60;96.90;;;;;;5073533;28;20032;-56
2021/11/26 09:11:34;;;;;;;10.68;3.15;;;19.60;96.90;;;;;;5073210;28;20138;-61
2021/11/26 09:14:05;;;;;;;8.77;3.08;;;19.60;96.90;;;;;;5073357;28;20029;-60
2021/11/26 09:16:35;;;;;;;7.93;2.15;;;19.60;96.90;;;;;;5073703;28;20028;-60
2021/11/26 09:19:03;;;;;;;8.35;2.60;;;19.60;96.90;;;;;;5073721;28;20027;-59
2021/11/26 09:21:31;;;;;;;8.05;2.60;;;19.60;96.90;;;;;;5073543;28;20032;-62
2021/11/26 09:23:59;;;;;;;8.02;2.60;;;19.60;96.90;;;;;;5073396;28;20024;-59
2021/11/26 09:26:27;;;;;;;8.85;2.47;;;19.60;96.90;;;;;;5073207;28;20040;-59
2021/11/26 09:28:54;;;;;;;9.75;2.97;;;19.60;96.80;;;;;;5073196;28;20027;-59
2021/11/26 09:31:22;;;;;;;10.20;3.25;;;19.60;96.80;;;;;;5073159;28;20037;-64
2021/11/26 09:33:52;;;;;;;9.00;2.92;;;19.60;96.90;;;;;;5073500;28;20025;-61
2021/11/26 09:36:22;;;;;;;9.57;2.85;;;19.60;96.90;;;;;;5073277;28;20035;-62
2021/11/26 09:38:51;;;;;;;12.00;3.15;;;19.60;96.80;;;;;;5072980;28;20100;-61
2021/11/26 09:41:18;;;;;;;8.35;2.55;;;19.60;96.90;;;;;;5072891;28;20028;-62
2021/11/26 09:43:48;;;;;;;9.30;2.28;;;19.60;96.90;;;;;;5073064;28;20115;-59
2021/11/26 09:46:19;;;;;;;9.30;2.75;;;19.50;96.90;;;;;;5072887;28;20119;-61
2021/11/26 09:48:46;;;;;;;7.22;2.28;;;19.50;96.80;;;;;;5071739;28;20491;-59
2021/11/26 09:51:14;;;;;;;8.38;2.50;;;19.50;96.80;;;;;;5073017;28;20024;-58
2021/11/26 09:53:42;;;;;;;7.45;2.42;;;19.50;96.80;;;;;;5072664;28;20048;-58
2021/11/26 09:56:10;;;;;;;11.48;3.10;;;19.50;96.90;;;;;;5072561;28;20020;-60
2021/11/26 09:58:38;;;;;;;10.00;2.80;;;19.50;96.80;;;;;;5073033;28;20027;-62
2021/11/26 10:01:08;;;;;;;8.85;2.55;;;19.50;96.70;;;;;;5072971;28;20306;-58
2021/11/26 10:03:44;;;;;;;9.43;2.70;;;19.40;96.90;;;;;;5072548;28;20383;-59
2021/11/26 10:06:26;;;;;;;7.68;2.58;;;19.50;96.80;;;;;;5071234;28;20040;-60
2021/11/26 10:09:22;;;;;;;8.98;2.70;;;19.50;96.60;;;;;;5072447;28;20032;-60
2021/11/26 10:11:54;;;;;;;9.18;2.65;;;19.40;96.90;;;;;;5072006;28;20040;-56
2021/11/26 10:14:25;;;;;;;7.15;2.40;;;19.50;97.00;;;;;;5071036;28;20027;-58
2021/11/26 10:17:17;;;;;;;11.43;2.95;;;19.50;97.00;;;;;;5072014;28;20475;-61
2021/11/26 10:19:59;;;;;;;10.98;2.90;;;19.50;96.90;;;;;;5072222;28;20093;-61
2021/11/26 10:22:36;;;;;;;12.27;2.90;;;19.50;97.00;;;;;;5072882;28;20254;-61
2021/11/26 10:25:14;;;;;;;8.18;2.67;;;19.50;96.90;;;;;;5071423;28;20031;-62
2021/11/26 10:27:51;;;;;;;10.05;2.40;;;19.50;96.90;;;;;;5072532;28;20044;-60
2021/11/26 10:30:26;;;;;;;10.80;2.83;;;19.40;96.90;;;;;;5072648;28;20032;-60
2021/11/26 10:32:57;;;;;;;8.45;2.55;;;19.40;96.90;;;;;;5068186;28;20438;-61
2021/11/26 10:35:37;;;;;;;10.95;3.28;;;19.40;96.90;;;;;;5072588;28;20028;-61
2021/11/26 10:38:13;;;;;;;11.32;3.30;;;19.40;96.90;;;;;;5071985;28;20028;-60
2021/11/26 10:40:51;;;;;;;9.60;2.80;;;19.40;96.90;;;;;;5072346;28;20032;-60
2021/11/26 10:43:26;;;;;;;9.98;3.35;;;19.40;96.80;;;;;;5072554;28;20073;-58
2021/11/26 10:48:57;;;;;;;12.07;3.22;;;19.40;96.80;;;;;;5072411;28;20020;-62
2021/11/26 11:00:00;;;;;;;11.50;2.67;;;19.40;96.80;;;;;;5072263;28;20066;-62
2021/11/26 11:02:39;;;;;;;10.88;3.13;;;19.40;96.80;;;;;;5071263;28;20021;-62
2021/11/26 11:05:22;;;;;;;12.35;2.55;;;19.30;96.70;;;;;;5072424;28;20520;-61
2021/11/26 11:07:50;;;;;;;10.02;2.80;;;19.40;96.80;;;;;;5072768;28;20056;-57
2021/11/26 11:10:36;;;;;;;10.65;2.85;;;19.40;96.80;;;;;;5072159;28;20029;-59
2021/11/26 11:13:18;;;;;;;9.10;3.00;;;19.40;96.70;;;;;;5070496;28;20032;-61
2021/11/26 11:15:47;;;;;;;9.40;2.90;;;19.30;96.70;;;;;;5072119;28;20028;-61
2021/11/26 11:18:15;;;;;;;11.45;3.83;;;19.30;96.70;;;;;;5072125;28;20024;-61
2021/11/26 11:20:44;;;;;;;8.15;3.00;;;19.40;96.70;;;;;;5072216;28;20029;-62
2021/11/26 11:23:16;;;;;;;8.77;2.58;;;19.30;96.70;;;;;;5072166;28;20059;-58
2021/11/26 11:25:43;;;;;;;13.13;2.73;;;19.30;96.70;;;;;;5071753;28;20040;-60
2021/11/26 11:28:14;;;;;;;9.23;2.60;;;19.30;96.70;;;;;;5072828;28;20322;-60
2021/11/26 11:30:42;;;;;;;12.30;3.65;;;19.30;96.70;;;;;;5075569;28;20125;-57
2021/11/26 11:33:12;;;;;;;8.32;2.28;;;19.30;96.60;;;;;;5075700;28;20100;-60
2021/11/26 11:35:44;;;;;;;8.48;2.97;;;19.30;96.70;;;;;;5075625;28;20024;-59
2021/11/26 11:38:12;;;;;;;11.75;2.42;;;19.30;96.60;;;;;;5075443;28;20036;-54
2021/11/26 11:40:45;;;;;;;9.48;2.85;;;19.30;96.60;;;;;;5074256;28;20025;-56
2021/11/26 11:43:15;;;;;;;9.65;2.85;;;19.30;96.60;;;;;;5075353;28;20051;-59
2021/11/26 11:46:05;;;;;;;13.98;3.55;;;19.30;96.60;;;;;;5074991;28;20066;-52
2021/11/26 11:48:37;;;;;;;8.80;2.92;;;19.30;96.60;;;;;;5074309;28;20064;-54
2021/11/26 11:51:10;;;;;;;9.52;2.70;;;19.30;96.60;;;;;;5074248;28;20025;-59
2021/11/26 11:53:40;;;;;;;17.40;4.45;;;19.30;96.50;;;;;;5075122;28;20195;-61
2021/11/26 11:56:18;;;;;;;9.38;2.90;;;19.30;96.50;;;;;;5074986;28;20055;-61
2021/11/26 11:58:59;;;;;;;11.02;3.20;;;19.30;96.50;;;;;;5075180;28;20059;-58
2021/11/26 12:01:30;;;;;;;11.32;2.85;;;19.30;96.50;;;;;;5075296;28;20029;-57
2021/11/26 12:04:13;;;;;;;11.63;3.55;;;19.30;96.50;;;;;;5073972;28;20023;-61
2021/11/26 12:06:43;;;;;;;13.90;3.33;;;19.20;96.50;;;;;;5075149;28;20506;-57
2021/11/26 12:09:27;;;;;;;13.90;4.15;;;19.30;96.50;;;;;;5074780;28;20063;-62
2021/11/26 12:12:12;;;;;;;12.35;3.88;;;19.30;96.50;;;;;;5074431;28;20109;-62
2021/11/26 12:14:54;;;;;;;12.02;3.20;;;19.20;96.40;;;;;;5075041;28;20502;-62
2021/11/26 12:17:34;;;;;;;13.30;4.07;;;19.20;96.40;;;;;;5074962;28;20044;-60
2021/11/26 12:20:13;;;;;;;13.45;3.45;;;19.20;96.40;;;;;;5074953;28;20029;-61
2021/11/26 12:22:51;;;;;;;13.65;3.47;;;19.30;96.40;;;;;;5074891;28;20020;-59
2021/11/26 12:25:52;;;;;;;13.75;3.45;;;19.20;96.40;;;;;;5074821;28;20044;-62
2021/11/26 12:28:24;;;;;;;12.30;3.75;;;19.20;96.40;;;;;;5074808;28;20016;-54
2021/11/26 12:31:01;;;;;;;;;;;19.20;96.30;;;;;;5075266;28;20494;-57
2021/11/26 12:33:30;;;;;;;14.90;3.60;;;19.20;96.30;;;;;;5074540;28;19904;-62
2021/11/26 12:36:00;;;;;;;13.10;3.42;;;19.20;96.30;;;;;;5074090;28;20032;-60
2021/11/26 12:38:43;;;;;;;17.38;4.65;;;19.20;96.30;;;;;;5064652;28;20578;-59
2021/11/26 12:41:14;;;;;;;15.32;3.95;;;19.20;96.20;;;;;;5072341;28;20032;-57
2021/11/26 12:43:49;;;;;;;10.15;3.25;;;19.20;96.20;;;;;;5070281;28;20358;-58
2021/11/26 12:46:26;;;;;;;16.27;3.63;;;19.20;96.10;;;;;;5068927;28;20041;-60
2021/11/26 12:49:28;;;;;;;16.60;4.05;;;19.20;96.20;;;;;;5064674;28;20029;-54
2021/11/26 12:52:00;;;;;;;14.65;4.72;;;19.20;96.10;;;;;;5070271;28;20027;-61
2021/11/26 12:54:31;;;;;;;10.93;3.22;;;19.20;96.20;;;;;;5070033;28;20052;-58
2021/11/26 12:57:11;;;;;;;15.60;4.15;;;19.20;96.10;;;;;;5069979;28;20131;-54
2021/11/26 12:59:38;;;;;;;13.25;4.38;;;19.20;96.10;;;;;;5066838;28;20052;-60
2021/11/26 13:02:07;;;;;;;13.13;4.38;;;19.20;96.10;;;;;;5070484;28;20027;-59
2021/11/26 13:04:46;;;;;;;14.48;3.72;;;19.20;96.00;;;;;;5070139;28;20025;-61
2021/11/26 13:07:14;;;;;;;13.80;3.70;;;19.20;96.00;;;;;;5069827;28;20044;-54
2021/11/26 13:09:45;;;;;;;18.35;4.70;;;19.20;96.00;;;;;;5067273;28;20481;-60